Time;durP1;ratioP1;P1;durP2;ratioP2;P2;SDS_P1;SDS_P2;PMS_P1;PMS_P2;Temp;Humidity;BMP_temperature;BMP_pressure;BME280_temperature;BME280_humidity;BME280_pressure;Samples;Min_cycle;Max_cycle;Signal;HPM_P1;HPM_P2
2021/12/27 00:01:10;;;;;;;23.25;11.48;;;-3.20;99.90;;;;;;5049141;28;20017;-43
2021/12/27 00:03:37;;;;;;;29.38;12.50;;;-3.20;99.90;;;;;;5048654;28;20048;-46
2021/12/27 00:06:04;;;;;;;27.10;11.02;;;-3.20;99.90;;;;;;5068444;28;20028;-45
2021/12/27 00:08:30;;;;;;;24.02;11.07;;;-3.20;99.90;;;;;;5081612;28;20465;-44
2021/12/27 00:10:56;;;;;;;22.98;11.85;;;-3.20;99.90;;;;;;5085166;28;20032;-44
2021/12/27 00:13:21;;;;;;;22.90;10.70;;;-3.20;99.90;;;;;;5080347;28;20020;-45
2021/12/27 00:15:47;;;;;;;25.55;11.35;;;-3.20;99.90;;;;;;5087501;28;20020;-45
2021/12/27 00:18:13;;;;;;;24.52;10.40;;;-3.20;99.90;;;;;;5078749;28;20143;-45
2021/12/27 00:20:38;;;;;;;27.65;12.65;;;-3.20;99.90;;;;;;5088730;28;20115;-45
2021/12/27 00:23:04;;;;;;;26.42;10.82;;;-3.20;99.90;;;;;;5085166;28;20466;-44
2021/12/27 00:25:30;;;;;;;21.00;11.20;;;-3.20;99.90;;;;;;5080413;28;20020;-44
2021/12/27 00:27:56;;;;;;;27.83;11.25;;;-3.10;99.90;;;;;;5088188;28;20055;-44
2021/12/27 00:30:22;;;;;;;25.05;11.57;;;-3.20;99.90;;;;;;5087310;28;20028;-44
2021/12/27 00:32:48;;;;;;;17.85;10.32;;;-3.20;99.90;;;;;;5087340;28;20032;-44
2021/12/27 00:35:18;;;;;;;19.02;9.68;;;-3.10;99.90;;;;;;5078473;28;20037;-46
2021/12/27 00:37:43;;;;;;;30.80;13.30;;;-3.10;99.90;;;;;;5079714;28;20021;-44
2021/12/27 00:40:11;;;;;;;25.90;12.43;;;-3.10;99.90;;;;;;5088534;28;20117;-45
2021/12/27 00:42:37;;;;;;;25.13;10.07;;;-3.10;99.90;;;;;;5088622;28;20020;-44
2021/12/27 00:45:04;;;;;;;21.73;11.15;;;-3.10;99.90;;;;;;5084862;28;20050;-45
2021/12/27 00:47:30;;;;;;;23.50;10.20;;;-3.10;99.90;;;;;;5082718;28;20129;-44
2021/12/27 00:49:55;;;;;;;22.80;10.18;;;-3.10;99.90;;;;;;5068403;28;20273;-44
2021/12/27 00:52:21;;;;;;;27.90;11.60;;;-3.10;99.90;;;;;;5075875;28;20039;-44
2021/12/27 00:54:46;;;;;;;27.27;11.82;;;-3.20;99.90;;;;;;5082240;28;20020;-44
2021/12/27 00:57:12;;;;;;;24.73;11.43;;;-3.10;99.90;;;;;;5080635;28;20021;-44
2021/12/27 00:59:37;;;;;;;24.42;10.68;;;-3.00;99.90;;;;;;5082278;28;20472;-44
2021/12/27 01:02:03;;;;;;;25.38;11.80;;;-3.10;99.90;;;;;;5087125;28;20050;-44
2021/12/27 01:04:28;;;;;;;30.70;11.80;;;-3.10;99.90;;;;;;5085747;28;20416;-45
2021/12/27 01:06:54;;;;;;;28.05;11.93;;;-3.10;99.90;;;;;;5079993;28;20488;-44
2021/12/27 01:09:43;;;;;;;22.50;11.05;;;-3.10;99.90;;;;;;5085508;28;20024;-44
2021/12/27 01:17:40;;;;;;;25.58;11.32;;;-3.00;99.90;;;;;;5082582;28;20623;-46
2021/12/27 01:20:09;;;;;;;24.17;11.45;;;-3.00;99.90;;;;;;5079934;28;20023;-44
2021/12/27 01:22:35;;;;;;;22.80;12.27;;;-3.00;99.90;;;;;;5088483;28;20035;-45
2021/12/27 01:25:01;;;;;;;26.45;12.02;;;-3.10;99.90;;;;;;5088199;28;20274;-45
2021/12/27 01:27:26;;;;;;;26.67;11.75;;;-3.00;99.90;;;;;;5089034;28;20032;-44
2021/12/27 01:29:52;;;;;;;24.33;11.55;;;-3.00;99.90;;;;;;5092115;28;20035;-46
2021/12/27 01:32:18;;;;;;;25.23;12.27;;;-3.00;99.90;;;;;;5091696;28;20533;-44
2021/12/27 01:34:43;;;;;;;32.40;13.13;;;-3.00;99.90;;;;;;5089795;28;20467;-44
2021/12/27 01:37:09;;;;;;;23.88;11.57;;;-3.10;99.90;;;;;;5083044;28;20365;-43
2021/12/27 01:39:34;;;;;;;30.20;11.73;;;-3.00;99.90;;;;;;5091340;28;20071;-44
2021/12/27 01:42:00;;;;;;;23.77;11.55;;;-3.00;99.90;;;;;;5091682;28;20105;-44
2021/12/27 01:44:27;;;;;;;30.10;12.32;;;-3.00;99.90;;;;;;5083726;28;20581;-44
2021/12/27 01:46:53;;;;;;;27.55;11.70;;;-3.00;99.90;;;;;;5081907;28;20100;-44
2021/12/27 01:49:19;;;;;;;27.48;12.18;;;-3.00;99.90;;;;;;5091024;28;20028;-44
2021/12/27 01:51:45;;;;;;;28.92;12.07;;;-3.00;99.90;;;;;;5091645;28;20424;-44
2021/12/27 01:54:10;;;;;;;30.58;14.27;;;-3.00;99.90;;;;;;5085427;28;20031;-43
2021/12/27 01:56:36;;;;;;;27.75;12.23;;;-3.00;99.90;;;;;;5085404;28;20098;-44
2021/12/27 01:59:03;;;;;;;25.83;13.95;;;-3.00;99.90;;;;;;5086238;28;20032;-44
2021/12/27 02:01:29;;;;;;;24.92;12.43;;;-3.00;99.90;;;;;;5084177;28;20036;-44
2021/12/27 02:03:55;;;;;;;27.35;13.52;;;-3.00;99.90;;;;;;5077913;28;20406;-44
2021/12/27 02:06:22;;;;;;;27.52;11.82;;;-3.00;99.90;;;;;;5082754;28;20024;-43
2021/12/27 02:08:48;;;;;;;29.65;12.60;;;-3.00;99.90;;;;;;5087783;28;20028;-44
2021/12/27 02:11:16;;;;;;;28.67;13.48;;;-3.00;99.90;;;;;;5081808;28;20496;-44
2021/12/27 02:13:43;;;;;;;30.88;12.73;;;-3.00;99.90;;;;;;5090969;28;20024;-44
2021/12/27 02:16:11;;;;;;;28.52;12.82;;;-3.00;99.90;;;;;;5079412;28;20024;-45
2021/12/27 02:18:37;;;;;;;29.45;13.55;;;-3.00;99.90;;;;;;5084363;28;20028;-45
2021/12/27 02:21:03;;;;;;;28.02;13.57;;;-3.00;99.90;;;;;;5081172;28;20016;-45
2021/12/27 02:23:29;;;;;;;30.10;12.93;;;-3.00;99.90;;;;;;5083874;28;20024;-46
2021/12/27 02:25:55;;;;;;;28.23;12.07;;;-2.90;99.90;;;;;;5083733;28;20076;-45
2021/12/27 02:28:21;;;;;;;29.75;13.23;;;-3.00;99.90;;;;;;5081974;28;20224;-44
2021/12/27 02:30:49;;;;;;;32.45;14.02;;;-2.90;99.90;;;;;;5084115;28;20035;-45
2021/12/27 02:33:15;;;;;;;26.63;12.90;;;-3.00;99.90;;;;;;5082323;28;20401;-45
2021/12/27 02:35:48;;;;;;;31.83;14.02;;;-2.90;99.90;;;;;;5084730;28;20016;-45
2021/12/27 02:38:27;;;;;;;31.85;14.15;;;-2.90;99.90;;;;;;5074082;28;20033;-46
2021/12/27 02:40:53;;;;;;;28.15;12.73;;;-2.80;99.90;;;;;;5081978;28;20012;-47
2021/12/27 02:43:30;;;;;;;34.83;13.27;;;-2.90;99.90;;;;;;5087356;28;20448;-45
2021/12/27 02:46:01;;;;;;;28.30;12.57;;;-2.90;99.90;;;;;;5081965;28;20020;-47
2021/12/27 02:48:40;;;;;;;32.72;15.75;;;-2.80;99.90;;;;;;5087064;28;20051;-45
2021/12/27 02:51:07;;;;;;;34.42;14.65;;;-2.80;99.90;;;;;;5081883;28;20457;-44
2021/12/27 02:53:32;;;;;;;33.53;13.95;;;-2.80;99.90;;;;;;5088821;28;20082;-45
2021/12/27 02:56:00;;;;;;;32.47;13.98;;;-2.80;99.90;;;;;;5081529;28;20032;-44
2021/12/27 02:58:26;;;;;;;30.27;13.60;;;-2.80;99.90;;;;;;5084861;28;20024;-44
2021/12/27 03:01:00;;;;;;;30.83;14.38;;;-2.80;99.90;;;;;;5086032;28;20394;-44
2021/12/27 03:03:26;;;;;;;31.02;13.98;;;-2.70;99.90;;;;;;5052914;28;20210;-44
2021/12/27 03:05:52;;;;;;;34.47;13.63;;;-2.70;99.90;;;;;;5077692;28;20414;-44
2021/12/27 03:08:19;;;;;;;30.15;14.77;;;-2.70;99.90;;;;;;5089151;28;20024;-46
2021/12/27 03:10:51;;;;;;;34.90;14.85;;;-2.70;99.90;;;;;;5078719;28;20024;-47
2021/12/27 03:13:34;;;;;;;30.95;14.55;;;-2.70;99.90;;;;;;5089372;28;20070;-44
2021/12/27 03:16:04;;;;;;;32.65;13.82;;;-2.60;99.90;;;;;;5080033;28;20078;-44
2021/12/27 03:18:31;;;;;;;29.73;14.48;;;-2.60;99.90;;;;;;5082116;28;20085;-45
2021/12/27 03:20:56;;;;;;;34.05;14.75;;;-2.60;99.90;;;;;;5081960;28;20111;-45
2021/12/27 03:23:22;;;;;;;38.15;15.10;;;-2.60;99.90;;;;;;5081528;28;20345;-45
2021/12/27 03:25:49;;;;;;;32.97;14.10;;;-2.60;99.90;;;;;;5083293;28;20301;-44
2021/12/27 03:28:15;;;;;;;37.58;15.32;;;-2.60;99.90;;;;;;5080691;28;20481;-44
2021/12/27 03:30:41;;;;;;;33.88;14.63;;;-2.60;99.90;;;;;;5083847;28;20024;-46
2021/12/27 03:33:08;;;;;;;32.85;14.98;;;-2.60;99.90;;;;;;5081070;28;20035;-44
2021/12/27 03:35:36;;;;;;;35.55;16.15;;;-2.60;99.90;;;;;;5085365;28;20065;-45
2021/12/27 03:38:05;;;;;;;38.17;17.50;;;-2.60;99.90;;;;;;5077215;28;20424;-44
2021/12/27 03:40:31;;;;;;;33.47;15.70;;;-2.50;99.90;;;;;;5080976;28;20087;-45
2021/12/27 03:42:57;;;;;;;31.73;15.27;;;-2.50;99.90;;;;;;5088137;28;20366;-45
2021/12/27 03:45:31;;;;;;;35.95;16.38;;;-2.60;99.90;;;;;;5076423;28;20210;-44
2021/12/27 03:47:58;;;;;;;33.67;15.60;;;-2.60;99.90;;;;;;5085543;28;20022;-44
2021/12/27 03:50:25;;;;;;;39.72;16.60;;;-2.50;99.90;;;;;;5082372;28;20077;-44
2021/12/27 03:52:52;;;;;;;33.72;15.95;;;-2.50;99.90;;;;;;5085064;28;20023;-44
2021/12/27 03:55:17;;;;;;;29.80;15.00;;;-2.50;99.90;;;;;;5084872;28;20477;-46
2021/12/27 03:57:51;;;;;;;38.05;16.75;;;-2.50;99.90;;;;;;5080003;28;20081;-44
2021/12/27 04:02:48;;;;;;;36.15;17.95;;;-2.40;99.90;;;;;;5080538;28;20504;-45
2021/12/27 04:05:14;;;;;;;34.25;16.35;;;-2.40;99.90;;;;;;5086987;28;20024;-45
2021/12/27 04:07:40;;;;;;;38.20;15.93;;;-2.40;99.90;;;;;;5080126;28;20016;-44
2021/12/27 04:10:08;;;;;;;32.53;15.68;;;-2.40;99.90;;;;;;5086156;28;20036;-44
2021/12/27 04:12:35;;;;;;;32.65;15.90;;;-2.40;99.90;;;;;;5077082;28;20036;-45
2021/12/27 04:15:01;;;;;;;35.15;15.18;;;-2.40;99.90;;;;;;5101926;28;20025;-45
2021/12/27 04:17:27;;;;;;;39.30;17.25;;;-2.40;99.90;;;;;;5075760;28;20052;-45
2021/12/27 04:19:52;;;;;;;40.65;17.90;;;-2.40;99.90;;;;;;5084953;28;20055;-45
2021/12/27 04:22:18;;;;;;;35.83;15.70;;;-2.40;99.90;;;;;;5079192;28;20202;-44
2021/12/27 04:24:44;;;;;;;35.83;15.82;;;-2.40;99.90;;;;;;5083721;28;20103;-44
2021/12/27 04:27:10;;;;;;;37.13;15.55;;;-2.40;99.90;;;;;;5078910;28;20024;-44
2021/12/27 04:29:35;;;;;;;35.60;15.48;;;-2.40;99.90;;;;;;5082173;28;20125;-45
2021/12/27 04:32:00;;;;;;;33.35;15.27;;;-2.40;99.90;;;;;;5082289;28;20066;-45
2021/12/27 04:34:26;;;;;;;35.92;17.10;;;-2.40;99.90;;;;;;5081068;28;20089;-45
2021/12/27 04:36:51;;;;;;;36.92;15.82;;;-2.40;99.90;;;;;;5083489;28;20019;-45
2021/12/27 04:39:17;;;;;;;33.38;16.50;;;-2.40;99.90;;;;;;5079521;28;20397;-45
2021/12/27 04:41:43;;;;;;;38.03;17.20;;;-2.30;99.90;;;;;;5085664;28;20024;-44
2021/12/27 04:44:08;;;;;;;36.55;15.82;;;-2.30;99.90;;;;;;5077786;28;20665;-45
2021/12/27 04:46:34;;;;;;;41.95;18.25;;;-2.40;99.90;;;;;;5076384;28;20184;-44
2021/12/27 04:49:00;;;;;;;42.67;18.67;;;-2.30;99.90;;;;;;5085190;28;20553;-47
2021/12/27 04:51:26;;;;;;;36.33;17.58;;;-2.40;99.90;;;;;;5076052;28;20020;-45
2021/12/27 04:53:52;;;;;;;39.33;18.50;;;-2.40;99.90;;;;;;5084711;28;20028;-45
2021/12/27 04:56:18;;;;;;;41.63;16.48;;;-2.30;99.90;;;;;;5074077;28;20020;-46
2021/12/27 04:58:45;;;;;;;41.58;17.17;;;-2.30;99.90;;;;;;5070222;28;20573;-46
2021/12/27 05:01:11;;;;;;;42.03;18.63;;;-2.40;99.90;;;;;;5070781;28;20039;-45
2021/12/27 05:03:37;;;;;;;39.20;16.90;;;-2.30;99.90;;;;;;5072884;28;20025;-44
2021/12/27 05:06:03;;;;;;;37.17;16.83;;;-2.30;99.90;;;;;;5074017;28;20524;-45
2021/12/27 05:08:28;;;;;;;37.95;16.75;;;-2.30;99.90;;;;;;5073234;28;20035;-45
2021/12/27 05:10:54;;;;;;;35.85;16.95;;;-2.30;99.90;;;;;;5073359;28;20043;-46
2021/12/27 05:13:19;;;;;;;40.17;17.92;;;-2.30;99.90;;;;;;5075345;28;20031;-45
2021/12/27 05:15:45;;;;;;;39.53;17.42;;;-2.30;99.90;;;;;;5071268;28;20024;-44
2021/12/27 05:18:11;;;;;;;36.22;17.45;;;-2.30;99.90;;;;;;5076124;28;20020;-44
2021/12/27 05:20:38;;;;;;;44.25;19.00;;;-2.30;99.90;;;;;;5067482;28;20023;-47
2021/12/27 05:23:04;;;;;;;42.67;18.75;;;-2.20;99.90;;;;;;5076704;28;20103;-44
2021/12/27 05:25:30;;;;;;;41.92;18.23;;;-2.20;99.90;;;;;;5071265;28;20096;-47
2021/12/27 05:27:55;;;;;;;39.90;17.35;;;-2.20;99.90;;;;;;5078687;28;20051;-45
2021/12/27 05:30:21;;;;;;;34.08;16.05;;;-2.20;99.90;;;;;;5082136;28;20026;-44
2021/12/27 05:32:47;;;;;;;35.45;17.17;;;-2.20;99.90;;;;;;5084183;28;20359;-44
2021/12/27 05:35:13;;;;;;;42.35;17.92;;;-2.20;99.90;;;;;;5081746;28;20085;-44
2021/12/27 05:37:39;;;;;;;40.92;18.30;;;-2.20;99.90;;;;;;5085143;28;20163;-44
2021/12/27 05:40:07;;;;;;;38.40;18.70;;;-2.20;99.90;;;;;;5082984;28;20117;-45
2021/12/27 05:42:35;;;;;;;40.42;18.23;;;-2.30;99.90;;;;;;5088328;28;20027;-45
2021/12/27 05:45:02;;;;;;;39.85;18.80;;;-2.30;99.90;;;;;;5079594;28;20248;-47
2021/12/27 05:47:29;;;;;;;40.40;17.48;;;-2.30;99.90;;;;;;5082456;28;20038;-45
2021/12/27 05:49:54;;;;;;;37.97;17.98;;;-2.30;99.90;;;;;;5088293;28;20119;-45
2021/12/27 05:52:20;;;;;;;34.42;16.95;;;-2.30;99.90;;;;;;5083178;28;20529;-44
2021/12/27 05:54:45;;;;;;;41.67;19.13;;;-2.30;99.90;;;;;;5090265;28;20028;-44
2021/12/27 05:57:11;;;;;;;37.28;18.63;;;-2.30;99.90;;;;;;5081250;28;20029;-44
2021/12/27 05:59:36;;;;;;;42.30;18.10;;;-2.30;99.90;;;;;;5091146;28;20527;-44
2021/12/27 06:02:03;;;;;;;42.40;19.08;;;-2.30;99.90;;;;;;5084038;28;20031;-44
2021/12/27 06:04:28;;;;;;;39.95;18.58;;;-2.30;99.90;;;;;;5082888;28;20507;-46
2021/12/27 06:06:53;;;;;;;42.40;18.67;;;-2.30;99.90;;;;;;5085161;28;20024;-44
2021/12/27 06:09:19;;;;;;;43.10;18.17;;;-2.30;99.90;;;;;;5070100;28;20028;-45
2021/12/27 06:11:44;;;;;;;38.35;18.58;;;-2.40;99.90;;;;;;5070324;28;20024;-44
2021/12/27 06:14:10;;;;;;;44.00;18.33;;;-2.30;99.90;;;;;;5074278;28;20365;-44
2021/12/27 06:16:36;;;;;;;43.90;18.55;;;-2.30;99.90;;;;;;5070213;28;20028;-44
2021/12/27 06:19:01;;;;;;;41.10;18.48;;;-2.30;99.90;;;;;;5079465;28;20020;-47
2021/12/27 06:21:27;;;;;;;39.53;17.63;;;-2.30;99.90;;;;;;5106480;28;20506;-45
2021/12/27 06:23:52;;;;;;;36.28;16.90;;;-2.30;99.90;;;;;;5079168;28;20016;-44
2021/12/27 06:26:18;;;;;;;39.58;17.73;;;-2.30;99.90;;;;;;5090370;28;20052;-44
2021/12/27 06:28:44;;;;;;;37.85;17.40;;;-2.20;99.90;;;;;;5076568;28;20505;-44
2021/12/27 06:31:10;;;;;;;42.13;19.23;;;-2.20;99.90;;;;;;5072851;28;20429;-44
2021/12/27 06:33:35;;;;;;;43.22;19.50;;;-2.20;99.90;;;;;;5071827;28;20024;-46
2021/12/27 06:36:01;;;;;;;43.20;19.38;;;-2.10;99.90;;;;;;5075522;28;20146;-44
2021/12/27 06:38:26;;;;;;;42.70;18.92;;;-2.10;99.90;;;;;;5071445;28;20285;-45
2021/12/27 06:40:52;;;;;;;39.80;19.02;;;-2.10;99.90;;;;;;5075822;28;20025;-44
2021/12/27 06:43:18;;;;;;;38.30;17.02;;;-2.10;99.90;;;;;;5071596;28;20099;-44
2021/12/27 06:45:44;;;;;;;38.70;17.08;;;-2.10;99.90;;;;;;5078188;28;20021;-45
2021/12/27 06:48:09;;;;;;;37.80;18.50;;;-2.00;99.90;;;;;;5068598;28;20119;-45
2021/12/27 06:50:35;;;;;;;42.20;18.90;;;-2.00;99.90;;;;;;5090526;28;20479;-46
2021/12/27 06:53:01;;;;;;;42.92;19.17;;;-2.00;99.90;;;;;;5075015;28;20043;-46
2021/12/27 06:55:26;;;;;;;47.17;20.50;;;-1.90;99.90;;;;;;5074371;28;20015;-46
2021/12/27 06:57:52;;;;;;;49.55;19.15;;;-1.90;99.90;;;;;;5071759;28;20024;-45
2021/12/27 07:00:18;;;;;;;47.53;20.08;;;-1.90;99.90;;;;;;5074362;28;20462;-48
2021/12/27 07:02:44;;;;;;;40.13;19.10;;;-2.00;99.90;;;;;;5072068;28;20104;-46
2021/12/27 07:05:11;;;;;;;40.20;18.70;;;-1.90;99.90;;;;;;5071233;28;20032;-44
2021/12/27 07:07:37;;;;;;;36.55;18.15;;;-1.90;99.90;;;;;;5073960;28;20097;-44
2021/12/27 07:10:05;;;;;;;41.97;17.58;;;-1.90;99.90;;;;;;5069168;28;20494;-44
2021/12/27 07:12:31;;;;;;;41.28;20.58;;;-1.90;99.90;;;;;;5070928;28;20059;-44
2021/12/27 07:14:56;;;;;;;39.20;18.13;;;-1.90;99.90;;;;;;5067617;28;20067;-44
2021/12/27 07:17:22;;;;;;;41.50;18.70;;;-1.90;99.90;;;;;;5080915;28;20038;-44
2021/12/27 07:19:47;;;;;;;42.90;20.42;;;-1.90;99.90;;;;;;5084306;28;20364;-45
2021/12/27 07:22:13;;;;;;;38.30;17.88;;;-1.90;99.90;;;;;;5079281;28;20382;-44
2021/12/27 07:24:38;;;;;;;43.58;20.45;;;-1.80;99.90;;;;;;5064865;28;20029;-44
2021/12/27 07:27:04;;;;;;;45.33;18.95;;;-1.80;99.90;;;;;;5069102;28;20336;-44
2021/12/27 07:29:30;;;;;;;39.50;20.35;;;-1.80;99.90;;;;;;5068492;28;20132;-44
2021/12/27 07:31:55;;;;;;;47.08;20.17;;;-1.80;99.90;;;;;;5080356;28;20024;-45
2021/12/27 07:34:24;;;;;;;47.20;20.02;;;-1.80;99.90;;;;;;5069268;28;20024;-44
2021/12/27 07:36:53;;;;;;;46.50;21.80;;;-1.80;99.90;;;;;;5076477;28;20119;-45
2021/12/27 07:39:20;;;;;;;42.72;19.20;;;-1.80;99.90;;;;;;5079982;28;20036;-47
2021/12/27 07:41:45;;;;;;;40.78;19.10;;;-1.80;99.90;;;;;;5087152;28;20473;-44
2021/12/27 07:44:11;;;;;;;42.05;19.23;;;-1.70;99.90;;;;;;5080874;28;20034;-45
2021/12/27 07:46:40;;;;;;;46.17;20.58;;;-1.70;99.90;;;;;;5087935;28;20020;-45
2021/12/27 07:49:06;;;;;;;43.88;20.67;;;-1.70;99.90;;;;;;5080116;28;20065;-44
2021/12/27 07:51:32;;;;;;;42.58;19.42;;;-1.70;99.90;;;;;;5078114;28;20444;-47
2021/12/27 07:53:57;;;;;;;48.35;20.88;;;-1.70;99.90;;;;;;5077555;28;20275;-45
2021/12/27 07:56:23;;;;;;;43.28;22.52;;;-1.60;99.90;;;;;;5088994;28;20032;-44
2021/12/27 07:58:48;;;;;;;39.25;18.83;;;-1.60;99.90;;;;;;5065506;28;20082;-44
2021/12/27 08:01:14;;;;;;;42.30;19.45;;;-1.60;99.90;;;;;;5057933;28;20032;-45
2021/12/27 08:03:39;;;;;;;44.03;19.25;;;-1.60;99.90;;;;;;5068722;28;20046;-44
2021/12/27 08:06:05;;;;;;;43.25;19.92;;;-1.60;99.90;;;;;;5070875;28;20628;-44
2021/12/27 08:08:30;;;;;;;37.95;18.75;;;-1.60;99.90;;;;;;5067219;28;20082;-46
2021/12/27 08:10:56;;;;;;;43.72;21.58;;;-1.60;99.90;;;;;;5069502;28;20059;-46
2021/12/27 08:13:22;;;;;;;40.63;20.38;;;-1.50;99.90;;;;;;5069841;28;20027;-44
2021/12/27 08:15:47;;;;;;;45.88;22.58;;;-1.50;99.90;;;;;;5069148;28;20013;-45
2021/12/27 08:18:13;;;;;;;47.38;19.98;;;-1.40;99.90;;;;;;5070981;28;20404;-44
2021/12/27 08:20:38;;;;;;;43.22;21.95;;;-1.40;99.90;;;;;;5070419;28;20478;-44
2021/12/27 08:23:04;;;;;;;43.83;21.50;;;-1.40;99.90;;;;;;5066437;28;20033;-45
2021/12/27 08:25:29;;;;;;;45.58;20.83;;;-1.40;99.90;;;;;;5084926;28;20119;-46
2021/12/27 08:27:55;;;;;;;39.45;19.90;;;-1.30;99.90;;;;;;5062902;28;20037;-44
2021/12/27 08:30:21;;;;;;;44.83;22.30;;;-1.30;99.90;;;;;;5071597;28;20588;-45
2021/12/27 08:32:46;;;;;;;45.33;20.77;;;-1.20;99.90;;;;;;5072561;28;20493;-45
2021/12/27 08:35:13;;;;;;;38.92;20.45;;;-1.20;99.90;;;;;;5067806;28;20031;-44
2021/12/27 08:37:40;;;;;;;41.22;20.58;;;-1.20;99.90;;;;;;5067879;28;20047;-45
2021/12/27 08:40:06;;;;;;;40.50;20.90;;;-1.10;99.90;;;;;;5072259;28;20237;-46
2021/12/27 08:42:31;;;;;;;40.75;19.70;;;-1.10;99.90;;;;;;5069658;28;20111;-45
2021/12/27 08:44:57;;;;;;;38.75;19.65;;;-1.10;99.90;;;;;;5080828;28;20123;-45
2021/12/27 08:47:23;;;;;;;43.33;21.67;;;-1.10;99.90;;;;;;5078534;28;20074;-45
2021/12/27 08:49:48;;;;;;;40.53;20.27;;;-1.00;99.90;;;;;;5079460;28;20043;-46
2021/12/27 08:52:14;;;;;;;40.88;20.27;;;-1.00;99.90;;;;;;5084395;28;20111;-46
2021/12/27 08:54:39;;;;;;;42.95;20.50;;;-1.00;99.90;;;;;;5090861;28;20031;-46
2021/12/27 08:57:09;;;;;;;39.90;19.00;;;-0.90;99.90;;;;;;5084097;28;20168;-46
2021/12/27 08:59:36;;;;;;;41.15;19.98;;;-0.90;99.90;;;;;;5091817;28;20021;-49
2021/12/27 09:02:01;;;;;;;40.97;20.05;;;-0.90;99.90;;;;;;5082442;28;20095;-48
2021/12/27 09:04:27;;;;;;;44.17;19.50;;;-0.80;99.90;;;;;;5085066;28;20166;-49
2021/12/27 09:06:52;;;;;;;40.17;20.20;;;-0.70;99.90;;;;;;5089035;28;20020;-46
2021/12/27 09:09:18;;;;;;;37.65;20.90;;;-0.70;99.90;;;;;;5083306;28;20044;-46
2021/12/27 09:11:44;;;;;;;40.35;19.70;;;-0.60;99.90;;;;;;5084162;28;20409;-48
2021/12/27 09:14:10;;;;;;;39.90;20.23;;;-0.50;99.90;;;;;;5080326;28;20035;-47
2021/12/27 09:16:36;;;;;;;43.13;20.80;;;-0.40;99.90;;;;;;5069896;28;20024;-46
2021/12/27 09:19:01;;;;;;;44.55;19.83;;;-0.30;99.90;;;;;;5095568;28;20028;-48
2021/12/27 09:21:27;;;;;;;44.88;20.27;;;-0.20;99.90;;;;;;5071145;28;20021;-46
2021/12/27 09:23:52;;;;;;;40.33;18.98;;;-0.20;99.90;;;;;;5080124;28;20034;-46
2021/12/27 09:26:18;;;;;;;37.72;18.75;;;-0.10;99.90;;;;;;5089685;28;20035;-46
2021/12/27 09:28:44;;;;;;;38.53;19.67;;;0.00;99.90;;;;;;5077900;28;20020;-46
2021/12/27 09:31:10;;;;;;;36.65;19.73;;;0.00;99.90;;;;;;5070468;28;20033;-48
2021/12/27 09:33:35;;;;;;;37.78;21.00;;;0.00;99.90;;;;;;5078892;28;20059;-46
2021/12/27 09:36:01;;;;;;;44.25;21.02;;;0.00;99.90;;;;;;5074308;28;20125;-46
2021/12/27 09:38:26;;;;;;;39.67;20.33;;;0.10;99.90;;;;;;5078504;28;20722;-46
2021/12/27 09:40:52;;;;;;;40.45;20.58;;;0.30;99.90;;;;;;5070110;28;20020;-46
2021/12/27 09:43:18;;;;;;;43.53;20.25;;;0.30;99.90;;;;;;5069224;28;20016;-47
2021/12/27 09:45:43;;;;;;;37.38;19.58;;;0.40;99.90;;;;;;5091877;28;20107;-45
2021/12/27 09:48:09;;;;;;;38.85;21.40;;;0.50;99.90;;;;;;5077786;28;20035;-46
2021/12/27 09:50:44;;;;;;;43.20;20.15;;;0.40;99.90;;;;;;5071274;28;20016;-46
2021/12/27 09:53:10;;;;;;;38.17;19.48;;;0.40;99.90;;;;;;5053224;28;20514;-46
2021/12/27 09:55:36;;;;;;;38.97;20.75;;;0.40;99.90;;;;;;5073456;28;20044;-47
2021/12/27 09:58:01;;;;;;;35.00;19.63;;;0.40;99.90;;;;;;5086776;28;20027;-46
2021/12/27 10:00:28;;;;;;;33.03;19.15;;;0.40;99.90;;;;;;5085272;28;20090;-46
2021/12/27 10:02:56;;;;;;;40.15;21.25;;;0.40;99.90;;;;;;5082833;28;20021;-46
2021/12/27 10:05:23;;;;;;;37.65;20.55;;;0.40;99.90;;;;;;5073722;28;20066;-46
2021/12/27 10:07:49;;;;;;;37.30;20.52;;;0.40;99.90;;;;;;5082245;28;20024;-49
2021/12/27 10:10:15;;;;;;;38.95;20.45;;;0.40;99.90;;;;;;5091161;28;20035;-46
2021/12/27 10:12:41;;;;;;;41.30;19.80;;;0.40;99.90;;;;;;5091146;28;20020;-46
2021/12/27 10:15:10;;;;;;;40.08;20.48;;;0.40;99.90;;;;;;5091393;28;20046;-46
2021/12/27 10:17:37;;;;;;;38.45;20.42;;;0.40;99.90;;;;;;5081231;28;20055;-47
2021/12/27 10:20:28;;;;;;;37.97;20.15;;;0.40;99.90;;;;;;5082785;28;20020;-46
2021/12/27 10:22:55;;;;;;;35.63;19.75;;;0.40;99.90;;;;;;5083864;28;20061;-46
2021/12/27 10:25:26;;;;;;;42.90;20.50;;;0.40;99.90;;;;;;5075003;28;20060;-46
2021/12/27 10:27:54;;;;;;;35.72;19.63;;;0.60;99.90;;;;;;5090577;28;20031;-46
2021/12/27 10:30:23;;;;;;;32.97;20.25;;;0.60;99.90;;;;;;5089531;28;20043;-46
2021/12/27 10:33:04;;;;;;;38.85;21.33;;;0.70;99.90;;;;;;5089686;28;20428;-47
2021/12/27 10:35:47;;;;;;;35.90;21.98;;;0.70;99.90;;;;;;5087607;28;20027;-46
2021/12/27 10:38:40;;;;;;;37.75;20.40;;;0.80;99.90;;;;;;5085707;28;20025;-47
2021/12/27 10:41:10;;;;;;;34.33;19.33;;;0.80;99.90;;;;;;5066502;28;20102;-46
2021/12/27 10:43:38;;;;;;;37.50;20.92;;;0.90;99.90;;;;;;5070425;28;20028;-46
2021/12/27 10:46:06;;;;;;;43.58;21.98;;;0.90;99.90;;;;;;5067468;28;20393;-46
2021/12/27 10:48:34;;;;;;;41.85;21.15;;;0.90;99.90;;;;;;5069994;28;20089;-46
2021/12/27 10:51:01;;;;;;;38.05;20.35;;;1.00;99.90;;;;;;5069163;28;20024;-46
2021/12/27 10:53:27;;;;;;;38.80;21.25;;;1.20;99.90;;;;;;5071723;28;20044;-47
2021/12/27 10:55:53;;;;;;;41.47;22.38;;;1.30;99.90;;;;;;5069340;28;20016;-46
2021/12/27 10:58:23;;;;;;;38.00;19.75;;;1.40;99.90;;;;;;5072306;28;20039;-46
2021/12/27 11:00:56;;;;;;;38.45;20.48;;;1.50;99.90;;;;;;5068277;28;20020;-46
2021/12/27 11:03:33;;;;;;;37.15;19.85;;;1.60;99.90;;;;;;5069298;28;20020;-47
2021/12/27 11:06:05;;;;;;;35.67;20.30;;;1.70;99.90;;;;;;5067240;28;20695;-46
2021/12/27 11:08:33;;;;;;;38.65;20.15;;;1.70;99.90;;;;;;5067556;28;20086;-46
2021/12/27 11:10:59;;;;;;;36.20;20.48;;;1.70;99.90;;;;;;5091580;28;20025;-46
2021/12/27 11:13:26;;;;;;;34.22;19.02;;;1.70;99.90;;;;;;5071493;28;20066;-46
2021/12/27 11:15:52;;;;;;;36.58;19.85;;;1.80;99.90;;;;;;5065875;28;20016;-45
2021/12/27 11:18:18;;;;;;;36.58;20.90;;;1.80;99.90;;;;;;5074590;28;20020;-46
2021/12/27 11:20:52;;;;;;;34.10;20.00;;;1.80;99.90;;;;;;5068817;28;20074;-45
2021/12/27 11:23:21;;;;;;;37.17;19.42;;;1.80;99.90;;;;;;5070453;28;20019;-45
2021/12/27 11:25:57;;;;;;;39.70;19.50;;;1.80;99.90;;;;;;5079031;28;20016;-46
2021/12/27 11:28:33;;;;;;;33.10;20.20;;;2.00;99.90;;;;;;5085704;28;20439;-45
2021/12/27 11:31:03;;;;;;;38.75;19.67;;;2.00;99.90;;;;;;5077814;28;20032;-45
2021/12/27 11:33:30;;;;;;;36.22;19.55;;;2.00;99.90;;;;;;5089317;28;20374;-45
2021/12/27 11:35:56;;;;;;;31.73;18.38;;;2.00;99.90;;;;;;5087512;28;20024;-45
2021/12/27 11:38:48;;;;;;;29.42;18.67;;;1.90;99.90;;;;;;5080613;28;20020;-47
2021/12/27 11:41:36;;;;;;;33.83;19.45;;;2.00;99.90;;;;;;5088296;28;20419;-46
2021/12/27 11:44:17;;;;;;;34.75;20.52;;;2.10;99.90;;;;;;5089119;28;20416;-48
2021/12/27 11:46:48;;;;;;;34.35;19.30;;;2.20;99.90;;;;;;5082423;28;20030;-46
2021/12/27 11:49:15;;;;;;;37.35;20.00;;;2.30;99.90;;;;;;5080276;28;20035;-45
2021/12/27 11:51:43;;;;;;;34.47;18.88;;;2.30;99.90;;;;;;5085655;28;20016;-45
2021/12/27 11:54:29;;;;;;;38.55;20.92;;;2.30;99.90;;;;;;5080500;28;20137;-45
2021/12/27 11:56:55;;;;;;;34.67;19.00;;;2.40;99.90;;;;;;5086006;28;20020;-45
2021/12/27 11:59:35;;;;;;;31.40;17.77;;;2.40;99.90;;;;;;5080222;28;20513;-46
2021/12/27 12:02:15;;;;;;;33.55;18.17;;;2.60;99.90;;;;;;5081425;28;20027;-46
2021/12/27 12:04:42;;;;;;;33.35;19.52;;;2.70;99.90;;;;;;5080537;28;20104;-46
2021/12/27 12:07:33;;;;;;;33.83;19.70;;;2.70;99.90;;;;;;5087266;28;20024;-45
2021/12/27 12:10:00;;;;;;;32.88;18.63;;;2.80;99.90;;;;;;5079961;28;20741;-45
2021/12/27 12:12:28;;;;;;;38.72;19.50;;;2.80;99.90;;;;;;5067249;28;20461;-46
2021/12/27 12:14:56;;;;;;;35.25;20.45;;;2.80;99.90;;;;;;5067352;28;20095;-45
2021/12/27 12:17:37;;;;;;;34.05;19.42;;;2.70;99.90;;;;;;5070046;28;20013;-45
2021/12/27 12:20:04;;;;;;;35.33;21.20;;;2.60;99.90;;;;;;5080516;28;20413;-48
2021/12/27 12:22:38;;;;;;;33.95;19.85;;;2.50;99.90;;;;;;5084635;28;20119;-45
2021/12/27 12:25:20;;;;;;;42.40;22.80;;;2.40;99.90;;;;;;5078274;28;20029;-46
2021/12/27 12:27:54;;;;;;;35.30;19.85;;;2.50;99.90;;;;;;5087750;28;20118;-45
2021/12/27 12:30:21;;;;;;;36.78;19.98;;;2.40;99.90;;;;;;5077090;28;20424;-47
2021/12/27 12:33:11;;;;;;;34.45;20.40;;;2.40;99.90;;;;;;5068492;28;20029;-48
2021/12/27 12:35:58;;;;;;;35.40;20.83;;;2.40;99.90;;;;;;5062212;28;20475;-46
2021/12/27 12:38:28;;;;;;;36.35;20.17;;;2.40;99.90;;;;;;5054689;28;20038;-45
2021/12/27 12:41:07;;;;;;;38.78;22.20;;;2.40;99.90;;;;;;5088807;28;20042;-45